Home > Products > Valid Products > TAF

000
FTUS43 KFSD 302320
TAFHON
TAF
KHON 302320Z 0100/0124 13004KT 5SM -SHRA FU SCT050 BKN110
     FM010900 17004KT 5SM BR BKN100
      TEMPO 0109/0113 4SM -SHRA BR BKN070
     FM011700 16008KT P6SM SCT045 BKN120=



000
FTUS43 KFSD 302320
TAFSUX
TAF
KSUX 302320Z 0100/0124 08006KT 6SM FU SCT050 BKN140
     FM010600 09005KT 5SM BR BKN110
     FM011200 12006KT 4SM BR BKN045=



000
FTUS43 KFSD 302320
TAFFSD
TAF
KFSD 302320Z 0100/0124 17004KT 6SM FU SCT040 BKN110
     FM010600 11005KT 6SM BR OVC120
      TEMPO 0108/0112 6SM -SHRA BKN080
     FM011200 13005KT 5SM BR OVC120
     FM011600 18005KT P6SM BKN150=



000
FTUS43 KFSD 302320
TAFSUX
TAF
KSUX 302320Z 0100/0124 08006KT 6SM FU SCT050 BKN140
     FM010600 09005KT 5SM BR BKN110
     FM011200 12006KT 4SM BR BKN045=



000
FTUS43 KFSD 301948 AAA
TAFHON
TAF AMD
KHON 301948Z 3020/0118 10007KT 6SM -SHRA FU SCT015 BKN080
     FM010000 13004KT 6SM FU SCT050 BKN140
     FM010900 17004KT 5SM BR BKN100
      TEMPO 0109/0113 4SM -SHRA BR BKN070
     FM011700 16008KT P6SM SCT045 BKN120=



000
FTUS43 KFSD 301948 AAA
TAFHON
TAF AMD
KHON 301948Z 3020/0118 10007KT 6SM -SHRA FU SCT015 BKN080
     FM010000 13004KT 6SM FU SCT050 BKN140
     FM010900 17004KT 5SM BR BKN100
      TEMPO 0109/0113 4SM -SHRA BR BKN070
     FM011700 16008KT P6SM SCT045 BKN120=



000
FTUS43 KFSD 301947 AAA
TAFSUX
TAF AMD
KSUX 301947Z 3020/0118 VRB06KT 6SM -RA FU SCT050 BKN120
     FM302300 09006KT 6SM FU SCT050 BKN140
     FM010600 09005KT 5SM BR BKN110
     FM011200 12006KT 4SM BR BKN045=



000
FTUS43 KFSD 301947 AAA
TAFSUX
TAF AMD
KSUX 301947Z 3020/0118 VRB06KT 6SM -RA FU SCT050 BKN120
     FM302300 09006KT 6SM FU SCT050 BKN140
     FM010600 09005KT 5SM BR BKN110
     FM011200 12006KT 4SM BR BKN045=



000
FTUS43 KFSD 301727
TAFHON
TAF
KHON 301727Z 3018/0118 13007KT 6SM FU SCT050 BKN120
     FM010000 16004KT 6SM FU SCT050 BKN140
     FM010900 17004KT 5SM BR BKN100
      TEMPO 0109/0113 4SM -SHRA BR BKN070
     FM011700 16008KT P6SM SCT045 BKN120=



000
FTUS43 KFSD 301727
TAFFSD
TAF
KFSD 301727Z 3018/0118 11005KT P6SM SCT070 BKN150
     FM010600 11005KT 6SM BR OVC120
      TEMPO 0108/0112 6SM -SHRA BKN080
     FM011200 13005KT 5SM BR OVC120
     FM011600 18005KT P6SM BKN150=



000
FTUS43 KFSD 301727
TAFSUX
TAF
KSUX 301727Z 3018/0118 VRB06KT 5SM FU SCT050 BKN120
     FM302100 09006KT P6SM SCT050 BKN140
      TEMPO 0102/0104 -TSRA BKN070CB
     FM010600 09005KT 5SM BR BKN110
     FM011200 12006KT 4SM BR BKN045=



000
FTUS43 KFSD 301727
TAFSUX
TAF
KSUX 301727Z 3018/0118 VRB06KT 5SM FU SCT050 BKN120
     FM302100 09006KT P6SM SCT050 BKN140
      TEMPO 0102/0104 -TSRA BKN070CB
     FM010600 09005KT 5SM BR BKN110
     FM011200 12006KT 4SM BR BKN045=



000
FTUS43 KFSD 301634 AAC
TAFHON
TAF AMD
KHON 301634Z 3017/0112 11007KT 6SM FU SCT050 BKN100
      TEMPO 3017/3018 4SM SHRA FU BKN050=



000
FTUS43 KFSD 301603 AAB
TAFSUX
TAF AMD
KSUX 301603Z 3016/0112 06005KT 5SM FU SCT050 OVC140
      TEMPO 3016/3018 3SM SHRA FU BKN050
     FM301800 07007KT 6SM FU SCT050 BKN120
      TEMPO 0101/0103 -TSRA BKN070CB=



000
FTUS43 KFSD 301603 AAB
TAFSUX
TAF AMD
KSUX 301603Z 3016/0112 06005KT 5SM FU SCT050 OVC140
      TEMPO 3016/3018 3SM SHRA FU BKN050
     FM301800 07007KT 6SM FU SCT050 BKN120
      TEMPO 0101/0103 -TSRA BKN070CB=



000
FTUS43 KFSD 301321 AAB
TAFHON
TAF AMD
KHON 301321Z 3013/0112 11007KT 5SM FU SCT050 BKN100
      TEMPO 3013/3014 5SM -TSRA BKN070CB
     FM301700 11007KT 6SM FU SCT050 BKN100=



000
FTUS43 KFSD 301216 AAA
TAFSUX
TAF AMD
KSUX 301216Z 3012/0112 34004KT 4SM FU BKN090
     FM301600 06008KT P6SM BKN100
      TEMPO 0101/0103 -TSRA BKN070CB=



000
FTUS43 KFSD 301216 AAA
TAFSUX
TAF AMD
KSUX 301216Z 3012/0112 34004KT 4SM FU BKN090
     FM301600 06008KT P6SM BKN100
      TEMPO 0101/0103 -TSRA BKN070CB=



000
FTUS43 KFSD 301216 AAA
TAFSUX
TAF AMD
KSUX 301216Z 3012/0112 34004KT 4SM FU BKN090
     FM301600 06008KT P6SM BKN100
      TEMPO 0101/0103 -TSRA BKN070CB=



000
FTUS43 KFSD 301216 AAA
TAFSUX
TAF AMD
KSUX 301216Z 3012/0112 34004KT 4SM FU BKN090
     FM301600 06008KT P6SM BKN100
      TEMPO 0101/0103 -TSRA BKN070CB=



000
FTUS43 KFSD 301213 AAA
TAFHON
TAF AMD
KHON 301213Z 3012/0112 11007KT 5SM FU SCT050 BKN100
     FM301700 11007KT 6SM FU SCT050 BKN100=



000
FTUS43 KFSD 301213 AAA
TAFHON
TAF AMD
KHON 301213Z 3012/0112 11007KT 5SM FU SCT050 BKN100
     FM301700 11007KT 6SM FU SCT050 BKN100=



000
FTUS43 KFSD 301130
TAFFSD
TAF
KFSD 301130Z 3012/0112 36004KT P6SM BKN100
     FM301500 08005KT P6SM BKN120
     FM010000 11005KT P6SM SCT050 BKN100=



000
FTUS43 KFSD 301130
TAFHON
TAF
KHON 301130Z 3012/0112 11007KT P6SM BKN100=



000
FTUS43 KFSD 301130
TAFSUX
TAF
KSUX 301130Z 3012/0112 34004KT P6SM BKN090
     FM301500 06008KT P6SM BKN100
      TEMPO 0101/0103 -TSRA BKN070CB=



000
FTUS43 KFSD 300535
TAFSUX
TAF
KSUX 300535Z 3006/0106 30004KT 6SM FU SKC
     FM300900 34004KT P6SM BKN090
     FM301500 06008KT P6SM BKN100=



000
FTUS43 KFSD 300535
TAFFSD
TAF
KFSD 300535Z 3006/0106 30004KT P6SM SCT250
     FM300900 36004KT 6SM FU BKN100
     FM301500 08005KT P6SM BKN120
     FM010000 11005KT P6SM SCT050 BKN100=



000
FTUS43 KFSD 300535
TAFSUX
TAF
KSUX 300535Z 3006/0106 30004KT 6SM FU SKC
     FM300900 34004KT P6SM BKN090
     FM301500 06008KT P6SM BKN100=



000
FTUS43 KFSD 300535
TAFHON
TAF
KHON 300535Z 3006/0106 VRB04KT P6SM VCTS BKN100CB
     FM300900 07005KT P6SM BKN120
     FM301200 11007KT P6SM BKN100=



000
FTUS43 KFSD 292328
TAFFSD
TAF
KFSD 292328Z 3000/3024 30004KT 6SM FU SKC
     FM300900 36004KT 6SM FU BKN100
     FM301500 08005KT 6SM FU BKN120=



000
FTUS43 KFSD 292328
TAFSUX
TAF
KSUX 292328Z 3000/3024 30004KT 6SM FU SKC
     FM300900 34004KT P6SM BKN090
     FM301500 06008KT P6SM BKN100=



000
FTUS43 KFSD 292328
TAFSUX
TAF
KSUX 292328Z 3000/3024 30004KT 6SM FU SKC
     FM300900 34004KT P6SM BKN090
     FM301500 06008KT P6SM BKN100=



000
FTUS43 KFSD 292328
TAFHON
TAF
KHON 292328Z 3000/3024 VRB04KT P6SM SCT120
     FM300800 07005KT P6SM BKN120
     FM301200 11007KT P6SM BKN120=



000
FTUS43 KFSD 291932 AAA
TAFFSD
TAF AMD
KFSD 291932Z 2920/3018 32012KT 6SM FU SCT050
     FM300030 30004KT 6SM FU SCT050
     FM300900 36004KT P6SM BKN120
     FM301500 08005KT P6SM BKN120=



000
FTUS43 KFSD 291738
TAFHON
TAF
KHON 291738Z 2918/3018 32011KT 6SM FU SCT050
     FM300000 VRB04KT 6SM FU SCT120
     FM300600 07005KT P6SM BKN120
     FM301200 10007KT P6SM BKN120=



000
FTUS43 KFSD 291738
TAFFSD
TAF
KFSD 291738Z 2918/3018 32012KT P6SM SCT050
     FM300030 30004KT 6SM FU SCT050
     FM300900 36004KT P6SM BKN120
     FM301500 08005KT P6SM BKN120=



000
FTUS43 KFSD 291738
TAFSUX
TAF
KSUX 291738Z 2918/3018 32011KT P6SM SCT050
     FM300030 28004KT P6SM SCT050
     FM300900 34004KT P6SM BKN120
     FM301500 05005KT P6SM BKN120=



000
FTUS43 KFSD 291738
TAFSUX
TAF
KSUX 291738Z 2918/3018 32011KT P6SM SCT050
     FM300030 28004KT P6SM SCT050
     FM300900 34004KT P6SM BKN120
     FM301500 05005KT P6SM BKN120=



000
FTUS43 KFSD 291311 AAA
TAFHON
TAF AMD
KHON 291311Z 2913/3012 31007KT 4SM FU SKC
     FM291700 33010KT 6SM FU FEW090
     FM300000 36005KT P6SM SKC=



000
FTUS43 KFSD 291125
TAFHON
TAF
KHON 291125Z 2912/3012 31004KT P6SM SKC
     FM291600 33010KT P6SM FEW090
     FM300000 36005KT P6SM SKC=



000
FTUS43 KFSD 291125
TAFSUX
TAF
KSUX 291125Z 2912/3012 33006KT P6SM SKC
     FM291600 33011KT P6SM SCT090
     FM300200 30004KT P6SM SKC=



000
FTUS43 KFSD 291125
TAFFSD
TAF
KFSD 291125Z 2912/3012 30004KT P6SM SKC
     FM291600 33012KT P6SM SCT080
     FM300100 36005KT P6SM SKC=



000
FTUS43 KFSD 291125
TAFSUX
TAF
KSUX 291125Z 2912/3012 33006KT P6SM SKC
     FM291600 33011KT P6SM SCT090
     FM300200 30004KT P6SM SKC=



000
FTUS43 KFSD 290520
TAFHON
TAF
KHON 290520Z 2906/3006 31004KT P6SM SKC
     FM291600 33010KT P6SM FEW090
     FM300000 36005KT P6SM SKC=



000
FTUS43 KFSD 290520
TAFFSD
TAF
KFSD 290520Z 2906/3006 30004KT P6SM SKC
     FM291600 33012KT P6SM SCT080
     FM300100 36005KT P6SM SKC=



000
FTUS43 KFSD 290520
TAFHON
TAF
KHON 290520Z 2906/3006 31004KT P6SM SKC
     FM291600 33010KT P6SM FEW090
     FM300000 36005KT P6SM SKC=



000
FTUS43 KFSD 290520
TAFSUX
TAF
KSUX 290520Z 2906/3006 33006KT P6SM SKC
     FM291600 33011KT P6SM SCT090
     FM300200 30004KT P6SM SKC=



000
FTUS43 KFSD 290520
TAFFSD
TAF
KFSD 290520Z 2906/3006 30004KT P6SM SKC
     FM291600 33012KT P6SM SCT080
     FM300100 36005KT P6SM SKC=



000
FTUS43 KFSD 290520
TAFSUX
TAF
KSUX 290520Z 2906/3006 33006KT P6SM SKC
     FM291600 33011KT P6SM SCT090
     FM300200 30004KT P6SM SKC=



000
FTUS43 KFSD 290520
TAFSUX
TAF
KSUX 290520Z 2906/3006 33006KT P6SM SKC
     FM291600 33011KT P6SM SCT090
     FM300200 30004KT P6SM SKC=



000
FTUS43 KFSD 290520
TAFSUX
TAF
KSUX 290520Z 2906/3006 33006KT P6SM SKC
     FM291600 33011KT P6SM SCT090
     FM300200 30004KT P6SM SKC=



000
FTUS43 KFSD 282320
TAFSUX
TAF
KSUX 282320Z 2900/2924 34011KT P6SM SKC
     FM290300 32006KT P6SM SKC
     FM291600 33010KT P6SM SKC=



000
FTUS43 KFSD 282320
TAFFSD
TAF
KFSD 282320Z 2900/2924 35009KT P6SM SKC
     FM290300 32004KT P6SM SKC
     FM291600 32010KT P6SM SKC=



000
FTUS43 KFSD 282320
TAFSUX
TAF
KSUX 282320Z 2900/2924 34011KT P6SM SKC
     FM290300 32006KT P6SM SKC
     FM291600 33010KT P6SM SKC=



000
FTUS43 KFSD 282320
TAFHON
TAF
KHON 282320Z 2900/2924 34009KT P6SM SKC
     FM290300 32004KT P6SM SKC
     FM291600 32010KT P6SM SKC=



000
FTUS43 KFSD 282320
TAFSUX
TAF
KSUX 282320Z 2900/2924 34011KT P6SM SKC
     FM290300 32006KT P6SM SKC
     FM291600 33010KT P6SM SKC=



000
FTUS43 KFSD 282320
TAFSUX
TAF
KSUX 282320Z 2900/2924 34011KT P6SM SKC
     FM290300 32006KT P6SM SKC
     FM291600 33010KT P6SM SKC=



000
FTUS43 KFSD 282320
TAFHON
TAF
KHON 282320Z 2900/2924 34009KT P6SM SKC
     FM290300 32004KT P6SM SKC
     FM291600 32010KT P6SM SKC=



000
FTUS43 KFSD 282320
TAFFSD
TAF
KFSD 282320Z 2900/2924 35009KT P6SM SKC
     FM290300 32004KT P6SM SKC
     FM291600 32010KT P6SM SKC=



000
FTUS43 KFSD 281734
TAFSUX
TAF
KSUX 281734Z 2818/2918 34015G22KT P6SM SCT050
     FM290000 34011KT P6SM SKC
     FM290300 31006KT P6SM SKC
     FM291600 33010KT P6SM SKC=



000
FTUS43 KFSD 281734
TAFFSD
TAF
KFSD 281734Z 2818/2918 34015G22KT P6SM SCT050
     FM290000 34009KT P6SM SKC
     FM290300 30004KT P6SM SKC
     FM291600 32010KT P6SM SKC=



000
FTUS43 KFSD 281734
TAFSUX
TAF
KSUX 281734Z 2818/2918 34015G22KT P6SM SCT050
     FM290000 34011KT P6SM SKC
     FM290300 31006KT P6SM SKC
     FM291600 33010KT P6SM SKC=



000
FTUS43 KFSD 281734
TAFHON
TAF
KHON 281734Z 2818/2918 35013G20KT P6SM SCT050
     FM290000 34008KT P6SM SKC
     FM290300 29004KT P6SM SKC
     FM291600 32010KT P6SM SKC=



000
FTUS43 KFSD 281123
TAFSUX
TAF
KSUX 281123Z 2812/2912 30009KT P6SM SKC
     FM281400 32011KT P6SM SKC
     FM281600 34015G22KT P6SM FEW050
     FM290000 34011KT P6SM SKC
     FM290300 31004KT P6SM SKC=



000
FTUS43 KFSD 281123
TAFSUX
TAF
KSUX 281123Z 2812/2912 30009KT P6SM SKC
     FM281400 32011KT P6SM SKC
     FM281600 34015G22KT P6SM FEW050
     FM290000 34011KT P6SM SKC
     FM290300 31004KT P6SM SKC=



000
FTUS43 KFSD 281123
TAFFSD
TAF
KFSD 281123Z 2812/2912 31007KT P6SM FEW070
     FM281500 34014G21KT P6SM SCT060
     FM290100 34009KT P6SM SKC
     FM290400 30004KT P6SM SKC=



000
FTUS43 KFSD 281123
TAFHON
TAF
KHON 281123Z 2812/2912 32007KT P6SM FEW070
     FM281600 34013G18KT P6SM FEW060
     FM290100 34008KT P6SM SKC
     FM290400 30004KT P6SM SKC=



000
FTUS43 KFSD 281123
TAFHON
TAF
KHON 281123Z 2812/2912 32007KT P6SM FEW070
     FM281600 34013G18KT P6SM FEW060
     FM290100 34008KT P6SM SKC
     FM290400 30004KT P6SM SKC=



000
FTUS43 KFSD 281123
TAFFSD
TAF
KFSD 281123Z 2812/2912 31007KT P6SM FEW070
     FM281500 34014G21KT P6SM SCT060
     FM290100 34009KT P6SM SKC
     FM290400 30004KT P6SM SKC=



000
FTUS43 KFSD 281123
TAFSUX
TAF
KSUX 281123Z 2812/2912 30009KT P6SM SKC
     FM281400 32011KT P6SM SKC
     FM281600 34015G22KT P6SM FEW050
     FM290000 34011KT P6SM SKC
     FM290300 31004KT P6SM SKC=



000
FTUS43 KFSD 280524
TAFFSD
TAF
KFSD 280524Z 2806/2906 22007KT P6SM FEW080 BKN150
     FM281000 31007KT P6SM SKC
     FM281500 34014G22KT P6SM SCT040
     FM290100 34005KT P6SM SKC=



000
FTUS43 KFSD 280524
TAFSUX
TAF
KSUX 280524Z 2806/2906 20006KT P6SM SKC
     FM281100 27005KT P6SM SKC
     FM281400 32011KT P6SM SKC
     FM281600 34015G24KT P6SM FEW040
     FM290100 34005KT P6SM SKC=



000
FTUS43 KFSD 280524
TAFHON
TAF
KHON 280524Z 2806/2906 22007KT P6SM SCT090
     FM280700 31007KT P6SM SKC
     FM281600 35013G20KT P6SM SCT050
     FM290100 34005KT P6SM SKC=



000
FTUS43 KFSD 280524
TAFSUX
TAF
KSUX 280524Z 2806/2906 20006KT P6SM SKC
     FM281100 27005KT P6SM SKC
     FM281400 32011KT P6SM SKC
     FM281600 34015G24KT P6SM FEW040
     FM290100 34005KT P6SM SKC=



    US Dept of Commerce
    National Oceanic and Atmospheric Administration
    National Weather Service
    1325 East West Highway
    Silver Spring, MD 20910
    Page Author: NWS Internet Services Team
Disclaimer
Information Quality
Credits
Glossary
Privacy Policy
Freedom of Information Act (FOIA)
About Us
Career Opportunities